createdAt,value
2023-01-19T00:01:26.987Z,12.40
2023-01-19T00:03:56.223Z,10.80
2023-01-19T00:06:24.189Z,14.88
2023-01-19T00:08:52.176Z,16.48
2023-01-19T00:11:20.427Z,11.88
2023-01-19T00:13:50.500Z,18.48
2023-01-19T00:16:19.614Z,12.25
2023-01-19T00:18:47.560Z,9.05
2023-01-19T00:21:16.912Z,9.55
2023-01-19T00:23:47.383Z,12.82
2023-01-19T00:26:17.245Z,14.65
2023-01-19T00:28:45.610Z,11.23
2023-01-19T00:31:13.887Z,15.35
2023-01-19T00:33:41.830Z,8.95
2023-01-19T00:36:11.002Z,9.35
2023-01-19T00:38:40.302Z,15.25
2023-01-19T00:41:08.123Z,11.38
2023-01-19T00:43:36.029Z,20.27
2023-01-19T00:46:04.204Z,13.43
2023-01-19T00:48:32.108Z,15.25
2023-01-19T00:51:01.057Z,16.95
2023-01-19T00:53:32.402Z,11.88
2023-01-19T00:56:01.901Z,9.73
2023-01-19T00:58:29.850Z,14.43
2023-01-19T01:01:03.609Z,10.00
2023-01-19T01:03:31.910Z,11.60
2023-01-19T01:06:00.097Z,12.10
2023-01-19T01:08:27.988Z,11.20
2023-01-19T01:10:56.156Z,19.08
2023-01-19T01:13:27.530Z,8.68
2023-01-19T01:15:56.682Z,9.23
2023-01-19T01:18:25.005Z,5.70
2023-01-19T01:20:55.256Z,9.20
2023-01-19T01:23:24.247Z,12.07
2023-01-19T01:25:52.133Z,10.63
2023-01-19T01:28:20.094Z,20.15
2023-01-19T01:30:49.501Z,6.93
2023-01-19T01:33:41.177Z,17.17
2023-01-19T01:36:05.915Z,13.75
2023-01-19T01:38:33.938Z,5.93
2023-01-19T01:41:01.793Z,6.38
2023-01-19T01:43:43.879Z,8.13
2023-01-19T01:46:16.150Z,5.82
2023-01-19T01:48:48.199Z,15.90
2023-01-19T01:51:27.986Z,10.98
2023-01-19T01:54:10.023Z,7.88
2023-01-19T01:56:40.270Z,14.98
2023-01-19T01:59:10.700Z,5.18
2023-01-19T02:01:58.072Z,9.32
2023-01-19T02:04:27.571Z,13.63
2023-01-19T02:07:12.920Z,12.73
2023-01-19T02:09:58.195Z,4.15
2023-01-19T02:12:43.593Z,13.00
2023-01-19T02:15:20.165Z,8.25
2023-01-19T02:17:50.144Z,12.57
2023-01-19T02:20:18.756Z,13.77
2023-01-19T02:22:50.190Z,10.18
2023-01-19T02:25:20.585Z,8.18
2023-01-19T02:27:49.802Z,6.78
2023-01-19T02:30:18.528Z,10.15
2023-01-19T02:32:46.658Z,5.75
2023-01-19T02:35:14.605Z,10.27
2023-01-19T02:37:43.412Z,5.28
2023-01-19T02:40:13.652Z,9.40
2023-01-19T02:42:45.332Z,8.63
2023-01-19T02:45:15.272Z,14.77
2023-01-19T02:47:45.784Z,12.35
2023-01-19T02:50:37.752Z,8.73
2023-01-19T02:53:18.813Z,13.70
2023-01-19T02:55:49.490Z,11.27
2023-01-19T02:58:21.726Z,14.50
2023-01-19T03:00:54.472Z,8.70
2023-01-19T03:03:27.931Z,5.30
2023-01-19T03:06:01.580Z,12.48
2023-01-19T03:08:35.872Z,7.07
2023-01-19T03:11:05.804Z,10.60
2023-01-19T03:13:44.006Z,8.85
2023-01-19T03:16:17.579Z,7.30
2023-01-19T03:18:48.029Z,17.17
2023-01-19T03:21:16.363Z,14.18
2023-01-19T03:23:46.515Z,11.60
2023-01-19T03:26:26.910Z,10.35
2023-01-19T03:28:57.095Z,6.47
2023-01-19T03:31:27.653Z,13.68
2023-01-19T03:33:57.649Z,12.05
2023-01-19T03:36:28.572Z,5.07
2023-01-19T03:38:57.317Z,10.35
2023-01-19T03:41:26.308Z,9.07
2023-01-19T03:43:56.378Z,10.52
2023-01-19T03:46:24.930Z,8.40
2023-01-19T03:48:53.009Z,9.40
2023-01-19T03:51:21.281Z,15.02
2023-01-19T03:53:49.912Z,9.05
2023-01-19T03:56:23.104Z,8.20
2023-01-19T03:58:51.564Z,4.65
2023-01-19T04:01:22.711Z,8.82
2023-01-19T04:03:51.165Z,16.67
2023-01-19T04:06:19.643Z,8.00
2023-01-19T04:08:49.655Z,9.40
2023-01-19T04:11:17.861Z,12.55
2023-01-19T04:13:45.839Z,9.82
2023-01-19T04:16:13.768Z,9.93
2023-01-19T04:18:43.251Z,11.70
2023-01-19T04:21:11.134Z,12.18
2023-01-19T04:23:38.974Z,9.07
2023-01-19T04:26:08.447Z,9.23
2023-01-19T04:28:37.991Z,8.30
2023-01-19T04:31:06.455Z,5.03
2023-01-19T04:33:34.693Z,6.53
2023-01-19T04:36:04.573Z,6.03
2023-01-19T04:38:32.426Z,11.63
2023-01-19T04:41:00.300Z,5.93
2023-01-19T04:43:28.235Z,11.48
2023-01-19T04:45:56.062Z,10.85
2023-01-19T04:48:24.164Z,10.00
2023-01-19T04:50:52.498Z,11.85
2023-01-19T04:53:21.824Z,16.27
2023-01-19T04:55:54.593Z,10.85
2023-01-19T04:58:22.605Z,15.13
2023-01-19T05:00:51.176Z,9.10
2023-01-19T05:03:20.009Z,12.05
2023-01-19T05:05:47.954Z,9.02
2023-01-19T05:08:15.824Z,13.40
2023-01-19T05:10:45.031Z,11.35
2023-01-19T05:13:14.024Z,10.70
2023-01-19T05:15:41.962Z,10.98
2023-01-19T05:18:09.872Z,9.85
2023-01-19T05:20:37.714Z,10.00
2023-01-19T05:23:05.623Z,12.65
2023-01-19T05:25:33.455Z,7.25
2023-01-19T05:28:03.979Z,11.80
2023-01-19T05:30:31.919Z,12.50
2023-01-19T05:33:00.077Z,10.20
2023-01-19T05:35:35.638Z,8.43
2023-01-19T05:38:04.054Z,7.55
2023-01-19T05:40:31.895Z,14.60
2023-01-19T05:43:01.038Z,10.45
2023-01-19T05:45:30.612Z,6.32
2023-01-19T05:47:58.585Z,8.13
2023-01-19T05:50:26.836Z,11.20
2023-01-19T05:52:54.734Z,9.93
2023-01-19T05:55:23.004Z,11.13
2023-01-19T05:57:51.124Z,9.82
2023-01-19T06:00:19.507Z,9.48
2023-01-19T06:02:49.317Z,11.15
2023-01-19T06:05:17.605Z,8.23
2023-01-19T06:07:45.523Z,13.02
2023-01-19T06:10:13.426Z,11.30
2023-01-19T06:12:41.951Z,10.77
2023-01-19T06:15:10.562Z,8.90
2023-01-19T06:17:38.511Z,6.78
2023-01-19T06:20:08.711Z,13.10
2023-01-19T06:22:36.579Z,8.32
2023-01-19T06:25:04.620Z,7.80
2023-01-19T06:27:32.532Z,5.18
2023-01-19T06:30:00.390Z,11.05
2023-01-19T06:32:28.383Z,11.40
2023-01-19T06:34:56.242Z,8.32
2023-01-19T06:37:27.226Z,7.55
2023-01-19T06:39:55.064Z,6.65
2023-01-19T06:42:22.906Z,6.22
2023-01-19T06:44:50.773Z,5.53
2023-01-19T06:47:18.682Z,8.32
2023-01-19T06:49:46.693Z,10.68
2023-01-19T06:52:16.018Z,20.50
2023-01-19T06:54:46.089Z,20.13
2023-01-19T06:57:14.140Z,9.18
2023-01-19T06:59:42.362Z,16.40
2023-01-19T07:02:26.695Z,12.27
2023-01-19T07:04:56.182Z,10.93
2023-01-19T07:07:24.074Z,9.95
2023-01-19T07:09:54.115Z,10.23
2023-01-19T07:12:22.262Z,10.30
2023-01-19T07:14:50.494Z,10.98
2023-01-19T07:17:18.615Z,6.97
2023-01-19T07:19:47.858Z,6.05
2023-01-19T07:22:15.754Z,7.07
2023-01-19T07:24:43.582Z,8.35
2023-01-19T07:27:13.571Z,6.65
2023-01-19T07:29:41.609Z,8.60
2023-01-19T07:32:09.515Z,5.38
2023-01-19T07:34:37.472Z,14.88
2023-01-19T07:37:05.358Z,10.55
2023-01-19T07:39:33.332Z,5.28
2023-01-19T07:42:01.225Z,5.28
2023-01-19T07:44:32.379Z,5.53
2023-01-19T07:47:00.288Z,5.20
2023-01-19T07:49:28.184Z,6.88
2023-01-19T07:51:57.329Z,8.70
2023-01-19T07:54:25.455Z,6.90
2023-01-19T07:56:55.096Z,4.97
2023-01-19T07:59:23.062Z,6.63
2023-01-19T08:01:54.094Z,11.57
2023-01-19T08:04:22.263Z,11.07
2023-01-19T08:06:50.322Z,7.43
2023-01-19T08:09:19.076Z,7.45
2023-01-19T08:11:47.031Z,5.85
2023-01-19T08:14:14.942Z,10.18
2023-01-19T08:16:42.834Z,7.15
2023-01-19T08:19:12.263Z,7.85
2023-01-19T08:21:40.272Z,5.47
2023-01-19T08:24:08.705Z,7.45
2023-01-19T08:26:37.048Z,9.45
2023-01-19T08:29:06.785Z,6.60
2023-01-19T08:31:34.827Z,9.68
2023-01-19T08:34:03.163Z,10.57
2023-01-19T08:36:32.572Z,6.47
2023-01-19T08:39:00.457Z,7.40
2023-01-19T08:41:28.322Z,5.95
2023-01-19T08:43:56.247Z,3.05
2023-01-19T08:46:24.178Z,7.50
2023-01-19T08:48:52.233Z,5.95
2023-01-19T08:51:20.106Z,5.22
2023-01-19T08:53:50.226Z,9.82
2023-01-19T08:56:20.524Z,5.00
2023-01-19T08:59:03.213Z,5.88
2023-01-19T09:01:36.986Z,4.85
2023-01-19T09:04:05.495Z,4.47
2023-01-19T09:06:34.100Z,6.03
2023-01-19T09:09:03.551Z,8.23
2023-01-19T09:11:31.878Z,5.32
2023-01-19T09:13:59.857Z,13.45
2023-01-19T09:16:29.275Z,8.55
2023-01-19T09:18:57.219Z,6.45
2023-01-19T09:21:25.162Z,6.55
2023-01-19T09:23:54.687Z,15.60
2023-01-19T09:26:23.999Z,11.02
2023-01-19T09:28:51.894Z,14.32
2023-01-19T09:31:19.925Z,9.02
2023-01-19T09:33:47.888Z,13.23
2023-01-19T09:36:15.976Z,8.93
2023-01-19T09:38:43.897Z,9.85
2023-01-19T09:41:17.661Z,12.32
2023-01-19T09:43:49.718Z,10.07
2023-01-19T09:46:21.068Z,10.02
2023-01-19T09:48:52.092Z,6.57
2023-01-19T09:51:21.635Z,10.90
2023-01-19T09:54:04.993Z,8.57
2023-01-19T09:56:33.653Z,7.43
2023-01-19T09:59:04.446Z,8.25
2023-01-19T10:01:45.903Z,8.38
2023-01-19T10:04:29.312Z,6.30
2023-01-19T10:07:05.465Z,9.30
2023-01-19T10:09:36.291Z,7.32
2023-01-19T10:12:10.064Z,9.80
2023-01-19T10:14:44.499Z,8.18
2023-01-19T10:17:19.267Z,5.78
2023-01-19T10:19:49.061Z,6.82
2023-01-19T10:22:22.091Z,9.50
2023-01-19T10:24:52.429Z,9.38
2023-01-19T10:27:22.441Z,15.45
2023-01-19T10:29:52.091Z,4.13
2023-01-19T10:32:22.257Z,7.55
2023-01-19T10:34:51.228Z,9.20
2023-01-19T10:37:26.903Z,5.95
2023-01-19T10:39:57.488Z,11.40
2023-01-19T10:42:30.706Z,5.72
2023-01-19T10:45:00.067Z,6.30
2023-01-19T10:47:32.726Z,9.63
2023-01-19T10:50:00.626Z,6.78
2023-01-19T10:52:32.110Z,5.45
2023-01-19T10:55:01.010Z,9.88
2023-01-19T10:57:30.786Z,7.15
2023-01-19T11:00:00.447Z,9.52
2023-01-19T11:02:30.166Z,8.80
2023-01-19T11:04:59.827Z,8.60
2023-01-19T11:07:29.985Z,10.63
2023-01-19T11:10:21.819Z,9.15
2023-01-19T11:12:57.015Z,10.55
2023-01-19T11:15:30.752Z,5.63
2023-01-19T11:17:58.844Z,7.80
2023-01-19T11:20:28.845Z,8.45
2023-01-19T11:23:05.774Z,11.20
2023-01-19T11:25:35.450Z,7.93
2023-01-19T11:28:03.991Z,14.85
2023-01-19T11:30:33.282Z,10.45
2023-01-19T11:33:01.551Z,8.80
2023-01-19T11:35:33.998Z,12.35
2023-01-19T11:38:17.107Z,8.73
2023-01-19T11:40:52.780Z,4.35
2023-01-19T11:43:22.057Z,9.07
2023-01-19T11:45:51.359Z,9.98
2023-01-19T11:48:24.876Z,7.00
2023-01-19T11:50:52.781Z,5.55
2023-01-19T11:53:24.703Z,6.38
2023-01-19T11:55:56.000Z,8.95
2023-01-19T11:58:24.362Z,6.03
2023-01-19T12:00:56.349Z,8.27
2023-01-19T12:03:26.848Z,5.77
2023-01-19T12:05:58.177Z,7.18
2023-01-19T12:08:30.003Z,7.47
2023-01-19T12:10:59.937Z,6.82
2023-01-19T12:13:30.267Z,12.57
2023-01-19T12:16:02.494Z,8.25
2023-01-19T12:18:33.665Z,8.90
2023-01-19T12:21:03.969Z,6.35
2023-01-19T12:23:47.864Z,5.47
2023-01-19T12:26:37.984Z,8.55
2023-01-19T12:29:11.205Z,8.95
2023-01-19T12:31:42.858Z,7.88
2023-01-19T12:34:36.047Z,4.95
2023-01-19T12:37:05.865Z,9.25
2023-01-19T12:39:35.321Z,8.02
2023-01-19T12:42:09.195Z,6.97
2023-01-19T12:44:37.378Z,4.90
2023-01-19T12:47:22.215Z,4.78
2023-01-19T12:49:51.887Z,7.40
2023-01-19T12:52:24.322Z,5.38
2023-01-19T12:54:58.062Z,7.20
2023-01-19T12:57:28.986Z,6.55
2023-01-19T12:59:58.362Z,7.53
2023-01-19T13:02:45.248Z,5.93
2023-01-19T13:05:23.658Z,4.60
2023-01-19T13:08:14.913Z,6.40
2023-01-19T13:11:19.630Z,7.90
2023-01-19T13:14:28.289Z,6.82
2023-01-19T13:17:02.286Z,5.00
2023-01-19T13:19:53.793Z,8.63
2023-01-19T13:22:53.420Z,7.35
2023-01-19T13:25:35.509Z,7.60
2023-01-19T13:28:09.943Z,8.55
2023-01-19T13:30:38.753Z,11.35
2023-01-19T13:33:11.353Z,12.15
2023-01-19T13:35:40.649Z,5.88
2023-01-19T13:38:08.772Z,5.85
2023-01-19T13:40:39.327Z,9.02
2023-01-19T13:43:15.180Z,6.40
2023-01-19T13:45:43.127Z,7.28
2023-01-19T13:48:17.352Z,7.85
2023-01-19T13:50:58.223Z,9.75
2023-01-19T13:53:26.147Z,6.75
2023-01-19T13:56:20.462Z,6.97
2023-01-19T13:59:09.943Z,6.35
2023-01-19T14:01:39.469Z,6.40
2023-01-19T14:04:07.619Z,6.40
2023-01-19T14:06:47.305Z,6.28
2023-01-19T14:09:18.495Z,6.03
2023-01-19T14:11:48.203Z,9.18
2023-01-19T14:14:24.181Z,5.65
2023-01-19T14:16:52.160Z,8.75
2023-01-19T14:19:20.069Z,7.55
2023-01-19T14:21:59.152Z,6.57
2023-01-19T14:24:29.684Z,7.72
2023-01-19T14:27:09.845Z,6.25
2023-01-19T14:29:39.024Z,7.53
2023-01-19T14:32:19.411Z,11.05
2023-01-19T14:34:48.869Z,4.53
2023-01-19T14:37:29.360Z,4.90
2023-01-19T14:39:59.641Z,8.15
2023-01-19T14:42:29.803Z,7.03
2023-01-19T14:44:59.639Z,9.93
2023-01-19T14:47:33.187Z,10.70
2023-01-19T14:50:07.419Z,8.55
2023-01-19T14:52:39.768Z,5.65
2023-01-19T14:55:16.368Z,10.48
2023-01-19T14:57:44.251Z,11.18
2023-01-19T15:00:17.415Z,5.38
2023-01-19T15:02:46.150Z,9.10
2023-01-19T15:05:14.339Z,6.95
2023-01-19T15:07:45.636Z,4.53
2023-01-19T15:10:17.908Z,9.90
2023-01-19T15:12:46.035Z,7.10
2023-01-19T15:15:19.061Z,7.63
2023-01-19T15:17:47.023Z,4.07
2023-01-19T15:20:17.138Z,8.95
2023-01-19T15:22:46.839Z,5.90
2023-01-19T15:25:15.922Z,7.15
2023-01-19T15:27:44.255Z,7.43
2023-01-19T15:30:17.095Z,6.07
2023-01-19T15:32:45.325Z,6.03
2023-01-19T15:35:15.220Z,5.13
2023-01-19T15:37:43.100Z,8.77
2023-01-19T15:40:13.605Z,11.25
2023-01-19T15:42:41.728Z,12.20
2023-01-19T15:45:36.063Z,7.60
2023-01-19T15:48:06.287Z,6.50
2023-01-19T15:50:35.166Z,8.70
2023-01-19T15:53:03.271Z,9.48
2023-01-19T15:55:32.655Z,5.43
2023-01-19T15:58:02.393Z,7.90
2023-01-19T16:00:30.707Z,9.35
2023-01-19T16:02:59.117Z,6.68
2023-01-19T16:05:41.545Z,7.60
2023-01-19T16:10:39.406Z,5.18
2023-01-19T16:13:07.303Z,9.35
2023-01-19T16:15:36.294Z,3.58
2023-01-19T16:18:04.639Z,7.10
2023-01-19T16:20:32.774Z,7.50
2023-01-19T16:23:14.599Z,9.88
2023-01-19T16:25:44.973Z,9.85
2023-01-19T16:28:12.979Z,7.40
2023-01-19T16:30:41.016Z,5.47
2023-01-19T16:33:11.558Z,8.30
2023-01-19T16:35:39.600Z,8.55
2023-01-19T16:38:09.322Z,2.80
2023-01-19T16:40:37.375Z,14.32
2023-01-19T16:43:06.667Z,4.68
2023-01-19T16:45:34.591Z,6.85
2023-01-19T16:48:02.504Z,8.48
2023-01-19T16:50:30.362Z,12.32
2023-01-19T16:52:59.003Z,15.05
2023-01-19T16:55:26.858Z,8.40
2023-01-19T16:57:56.345Z,6.78
2023-01-19T17:00:25.701Z,9.02
2023-01-19T17:02:53.564Z,7.25
2023-01-19T17:05:21.464Z,8.45
2023-01-19T17:07:49.318Z,5.15
2023-01-19T17:10:17.579Z,13.57
2023-01-19T17:12:45.466Z,13.05
2023-01-19T17:15:13.363Z,8.48
2023-01-19T17:17:42.584Z,9.75
2023-01-19T17:20:11.832Z,8.32
2023-01-19T17:22:39.873Z,9.68
2023-01-19T17:25:08.910Z,6.70
2023-01-19T17:27:36.911Z,7.60
2023-01-19T17:30:05.191Z,12.93
2023-01-19T17:32:33.035Z,6.07
2023-01-19T17:35:02.311Z,8.60
2023-01-19T17:37:30.241Z,8.48
2023-01-19T17:39:58.105Z,6.68
2023-01-19T17:42:25.986Z,7.18
2023-01-19T17:44:53.864Z,10.23
2023-01-19T17:47:25.412Z,6.35
2023-01-19T17:49:53.341Z,9.77
2023-01-19T17:52:22.798Z,8.55
2023-01-19T17:54:50.653Z,16.83
2023-01-19T17:57:18.547Z,8.93
2023-01-19T17:59:47.208Z,9.70
2023-01-19T18:02:15.107Z,6.25
2023-01-19T18:04:43.219Z,10.68
2023-01-19T18:07:11.074Z,10.10
2023-01-19T18:09:40.368Z,11.60
2023-01-19T18:12:08.506Z,9.48
2023-01-19T18:14:36.394Z,13.65
2023-01-19T18:17:04.563Z,6.65
2023-01-19T18:19:32.519Z,8.55
2023-01-19T18:22:00.359Z,10.77
2023-01-19T18:24:28.388Z,11.30
2023-01-19T18:26:57.628Z,9.93
2023-01-19T18:29:25.506Z,11.43
2023-01-19T18:31:53.427Z,10.73
2023-01-19T18:34:21.306Z,17.27
2023-01-19T18:36:49.136Z,16.38
2023-01-19T18:39:16.991Z,12.95
2023-01-19T18:41:44.923Z,15.70
2023-01-19T18:44:14.200Z,20.33
2023-01-19T18:46:42.215Z,15.60
2023-01-19T18:49:10.802Z,10.35
2023-01-19T18:51:40.424Z,11.20
2023-01-19T18:54:08.847Z,7.75
2023-01-19T18:56:36.720Z,11.10
2023-01-19T18:59:04.994Z,19.92
2023-01-19T19:01:35.980Z,9.32
2023-01-19T19:04:04.042Z,20.70
2023-01-19T19:06:31.860Z,8.40
2023-01-19T19:09:00.178Z,14.52
2023-01-19T19:11:28.605Z,9.20
2023-01-19T19:13:58.322Z,14.70
2023-01-19T19:16:26.902Z,20.00
2023-01-19T19:18:56.310Z,8.50
2023-01-19T19:21:26.877Z,16.40
2023-01-19T19:23:56.465Z,15.60
2023-01-19T19:26:25.289Z,11.35
2023-01-19T19:28:53.194Z,19.88
2023-01-19T19:31:22.785Z,18.45
2023-01-19T19:33:51.080Z,11.63
2023-01-19T19:36:21.198Z,18.98
2023-01-19T19:38:49.361Z,17.08
2023-01-19T19:41:22.644Z,18.42
2023-01-19T19:43:50.800Z,12.57
2023-01-19T19:46:20.107Z,17.58
2023-01-19T19:48:48.341Z,14.52
2023-01-19T19:51:19.228Z,12.50
2023-01-19T19:53:51.494Z,18.08
2023-01-19T19:56:21.099Z,11.10
2023-01-19T19:58:49.528Z,19.38
2023-01-19T20:01:19.233Z,15.43
2023-01-19T20:03:47.405Z,15.40
2023-01-19T20:06:17.854Z,8.70
2023-01-19T20:08:45.719Z,20.05
2023-01-19T20:11:16.921Z,16.98
2023-01-19T20:13:47.566Z,16.65
2023-01-19T20:16:18.611Z,21.02
2023-01-19T20:18:48.514Z,16.83
2023-01-19T20:21:18.428Z,16.63
2023-01-19T20:23:47.892Z,17.52
2023-01-19T20:26:19.909Z,14.88
2023-01-19T20:28:48.161Z,18.67
2023-01-19T20:31:19.265Z,15.00
2023-01-19T20:33:47.965Z,10.63
2023-01-19T20:36:16.296Z,23.02
2023-01-19T20:38:44.728Z,22.67
2023-01-19T20:41:13.940Z,21.08
2023-01-19T20:43:43.172Z,18.13
2023-01-19T20:46:11.346Z,7.40
2023-01-19T20:48:39.577Z,17.80
2023-01-19T20:51:09.408Z,16.05
2023-01-19T20:53:38.011Z,20.33
2023-01-19T20:56:06.313Z,19.15
2023-01-19T20:58:34.246Z,21.48
2023-01-19T21:01:10.548Z,16.50
2023-01-19T21:03:38.612Z,14.55
2023-01-19T21:06:06.895Z,24.55
2023-01-19T21:08:34.744Z,21.45
2023-01-19T21:11:02.807Z,18.30
2023-01-19T21:13:30.729Z,15.10
2023-01-19T21:15:59.032Z,17.27
2023-01-19T21:18:28.681Z,22.48
2023-01-19T21:20:57.388Z,19.65
2023-01-19T21:23:25.397Z,15.18
2023-01-19T21:25:54.936Z,16.33
2023-01-19T21:28:23.719Z,21.35
2023-01-19T21:30:51.996Z,24.55
2023-01-19T21:33:20.463Z,17.30
2023-01-19T21:35:53.338Z,21.98
2023-01-19T21:40:50.180Z,15.93
2023-01-19T21:43:19.300Z,19.52
2023-01-19T21:45:47.910Z,21.13
2023-01-19T21:48:16.030Z,16.02
2023-01-19T21:50:43.887Z,16.08
2023-01-19T21:53:13.598Z,11.88
2023-01-19T21:55:44.829Z,21.98
2023-01-19T21:58:12.740Z,24.00
2023-01-19T22:00:40.903Z,20.83
2023-01-19T22:03:09.049Z,15.13
2023-01-19T22:05:37.477Z,19.10
2023-01-19T22:08:06.267Z,20.00
2023-01-19T22:10:40.253Z,17.75
2023-01-19T22:13:10.081Z,27.60
2023-01-19T22:15:38.783Z,24.27
2023-01-19T22:18:06.800Z,18.60
2023-01-19T22:20:34.720Z,20.10
2023-01-19T22:23:02.572Z,21.00
2023-01-19T22:25:30.446Z,18.52
2023-01-19T22:27:59.672Z,20.38
2023-01-19T22:30:27.716Z,18.75
2023-01-19T22:32:55.717Z,18.88
2023-01-19T22:35:23.600Z,21.80
2023-01-19T22:37:51.519Z,20.75
2023-01-19T22:40:19.999Z,21.13
2023-01-19T22:42:47.919Z,21.95
2023-01-19T22:45:17.419Z,22.38
2023-01-19T22:47:45.252Z,26.30
2023-01-19T22:50:13.181Z,21.23
2023-01-19T22:52:41.426Z,23.83
2023-01-19T22:55:10.227Z,19.42
2023-01-19T22:57:38.351Z,19.27
2023-01-19T23:00:09.396Z,21.20
2023-01-19T23:02:38.726Z,19.80
2023-01-19T23:05:07.559Z,17.05
2023-01-19T23:07:35.377Z,21.30
2023-01-19T23:10:03.290Z,22.30
2023-01-19T23:12:31.159Z,18.67
2023-01-19T23:14:59.030Z,13.70
2023-01-19T23:17:26.997Z,18.30
2023-01-19T23:19:56.238Z,19.00
2023-01-19T23:22:24.104Z,13.40
2023-01-19T23:24:51.971Z,17.63
2023-01-19T23:27:19.780Z,22.25
2023-01-19T23:29:47.651Z,22.00
2023-01-19T23:32:15.549Z,10.60
2023-01-19T23:34:43.377Z,18.25
2023-01-19T23:37:12.676Z,12.07
2023-01-19T23:39:40.495Z,15.40
2023-01-19T23:42:08.873Z,12.63
2023-01-19T23:44:36.802Z,8.65
2023-01-19T23:47:04.677Z,13.15
2023-01-19T23:49:32.666Z,18.48
2023-01-19T23:52:00.630Z,11.48
2023-01-19T23:54:29.828Z,16.75
2023-01-19T23:56:57.650Z,9.65
2023-01-19T23:59:25.551Z,13.75
